Terminal Aerodrome Forecast
Issued by NWS Mt. Holly, NJ

Home | Current Version | Previous Version | Text Only | Print | Product List | Glossary On
Versions: 1 2 3 4 5 6 7 8 9 10 11 12 13 14 15 16 17 18 19 20 21 22 23 24 25 26 27 28 29 30 31 32 33 34 35 36 37 38 39 40 41 42 43 44 45 46 47 48 49 50
129
FTUS41 KPHI 290529
TAFABE
TAF
KABE 290529Z 2906/3006 VRB03KT 4SM -SHRA BR SCT030 OVC080
      TEMPO 2906/2908 2SM RA BR OVC010
     FM290800 05004KT 3SM +RA BR OVC005
     FM291200 03006KT 4SM SHRA BR OVC010
     FM291400 01008KT P6SM -SHRA OVC018
     FM291700 02008KT P6SM BKN035
     FM292200 VRB03KT P6SM SCT045=

USA.gov is the U.S. government's official web portal to all federal, state and local government web resources and services.